Time;durP1;ratioP1;P1;durP2;ratioP2;P2;SDS_P1;SDS_P2;PMS_P1;PMS_P2;Temp;Humidity;BMP_temperature;BMP_pressure;BME280_temperature;BME280_humidity;BME280_pressure;Samples;Min_cycle;Max_cycle;Signal;HPM_P1;HPM_P2
2022/07/12 00:01:54;;;;;;;4.75;2.47;;;18.80;99.90;;;;;;5006213;28;20464;-78
2022/07/12 00:04:21;;;;;;;4.65;1.65;;;18.80;99.90;;;;;;5005748;28;20124;-78
2022/07/12 00:06:48;;;;;;;1.88;1.60;;;18.90;99.90;;;;;;5005107;28;20050;-77
2022/07/12 00:09:15;;;;;;;1.83;1.58;;;18.90;99.90;;;;;;5005553;28;20129;-78
2022/07/12 00:11:42;;;;;;;2.63;1.60;;;18.90;99.90;;;;;;5006181;28;20084;-78
2022/07/12 00:14:09;;;;;;;2.67;1.55;;;18.90;99.90;;;;;;5022350;28;20088;-78
2022/07/12 00:16:36;;;;;;;1.65;1.42;;;18.90;99.90;;;;;;5014833;28;20503;-78
2022/07/12 00:19:03;;;;;;;3.03;1.50;;;18.80;99.90;;;;;;5012384;28;20069;-78
2022/07/12 00:21:30;;;;;;;4.30;1.90;;;18.80;99.90;;;;;;5012537;28;20046;-78
2022/07/12 00:23:57;;;;;;;2.10;1.90;;;18.80;99.90;;;;;;5007311;28;20042;-78
2022/07/12 00:26:24;;;;;;;4.68;2.17;;;18.80;99.90;;;;;;5005488;28;20046;-79
2022/07/12 00:28:50;;;;;;;3.75;1.90;;;18.80;99.90;;;;;;5004920;28;20046;-78
2022/07/12 00:31:17;;;;;;;2.40;1.67;;;18.80;99.90;;;;;;5006318;28;20129;-78
2022/07/12 00:33:44;;;;;;;5.60;2.20;;;18.70;99.90;;;;;;5006052;28;20133;-78
2022/07/12 00:36:11;;;;;;;4.22;2.05;;;18.70;99.90;;;;;;5004796;28;20082;-78
2022/07/12 00:38:38;;;;;;;3.67;2.20;;;18.70;99.90;;;;;;5006285;28;20136;-78
2022/07/12 00:41:05;;;;;;;2.25;2.03;;;18.60;99.90;;;;;;5006460;28;20081;-78
2022/07/12 00:43:31;;;;;;;3.38;2.15;;;18.60;99.90;;;;;;5003947;28;20085;-78
2022/07/12 00:45:58;;;;;;;3.58;2.03;;;18.60;99.90;;;;;;5006103;28;20077;-78
2022/07/12 00:48:25;;;;;;;4.75;2.20;;;18.60;99.90;;;;;;5006416;28;20046;-78
2022/07/12 00:50:52;;;;;;;2.70;2.10;;;18.60;99.90;;;;;;5003271;28;20082;-78
2022/07/12 00:53:23;;;;;;;2.55;1.90;;;18.60;99.90;;;;;;5009717;28;20105;-78
2022/07/12 00:55:54;;;;;;;2.55;2.25;;;18.50;99.90;;;;;;4995878;28;20086;-78
2022/07/12 00:58:22;;;;;;;4.45;1.92;;;18.50;99.90;;;;;;4995026;28;20093;-77
2022/07/12 01:00:50;;;;;;;3.72;1.95;;;18.50;99.90;;;;;;5004040;28;20068;-78
2022/07/12 01:03:17;;;;;;;3.42;1.90;;;18.40;99.90;;;;;;5010750;28;20508;-78
2022/07/12 01:05:44;;;;;;;2.35;1.70;;;18.40;99.90;;;;;;5012927;28;20084;-78
2022/07/12 01:08:12;;;;;;;4.38;2.13;;;18.40;99.90;;;;;;5004314;28;20504;-78
2022/07/12 01:10:39;;;;;;;6.43;2.42;;;18.50;99.90;;;;;;5003627;28;20088;-78
2022/07/12 01:13:07;;;;;;;2.38;1.85;;;18.50;99.90;;;;;;5002785;28;20484;-78
2022/07/12 01:15:35;;;;;;;2.28;1.92;;;18.40;99.90;;;;;;5010671;28;20092;-78
2022/07/12 01:18:03;;;;;;;2.08;1.88;;;18.30;99.90;;;;;;5005190;28;20089;-78
2022/07/12 01:20:32;;;;;;;4.60;2.00;;;18.30;99.90;;;;;;5004721;28;20058;-78
2022/07/12 01:22:59;;;;;;;2.95;1.95;;;18.30;99.90;;;;;;5010424;28;20445;-77
2022/07/12 01:25:27;;;;;;;2.28;2.08;;;18.30;99.90;;;;;;5005925;28;20419;-78
2022/07/12 01:27:54;;;;;;;5.60;2.63;;;18.40;99.90;;;;;;5006289;28;20046;-78
2022/07/12 01:30:21;;;;;;;3.42;2.28;;;18.40;99.90;;;;;;5007512;28;20050;-78
2022/07/12 01:32:48;;;;;;;2.75;2.22;;;18.30;99.90;;;;;;5003729;28;20082;-78
2022/07/12 01:35:15;;;;;;;2.22;1.83;;;18.20;99.90;;;;;;5012425;28;20045;-78
2022/07/12 01:37:42;;;;;;;3.38;2.13;;;18.20;99.90;;;;;;5003654;28;20144;-78
2022/07/12 01:40:12;;;;;;;4.32;1.98;;;18.20;99.90;;;;;;5003166;28;20449;-78
2022/07/12 01:42:40;;;;;;;2.13;1.90;;;18.20;99.90;;;;;;5004749;28;20133;-78
2022/07/12 01:45:08;;;;;;;4.25;2.10;;;18.20;99.90;;;;;;5010170;28;20463;-78
2022/07/12 01:47:35;;;;;;;2.88;1.92;;;18.20;99.90;;;;;;4993609;28;20085;-77
2022/07/12 01:50:06;;;;;;;3.63;2.38;;;18.20;99.90;;;;;;4994669;28;20050;-77
2022/07/12 01:52:33;;;;;;;5.00;2.63;;;18.30;99.90;;;;;;5002544;28;20050;-78
2022/07/12 01:54:59;;;;;;;3.50;2.40;;;18.30;99.90;;;;;;5000908;28;20082;-78
2022/07/12 01:57:27;;;;;;;3.00;2.20;;;18.30;99.90;;;;;;5002012;28;20054;-78
2022/07/12 01:59:54;;;;;;;3.08;2.20;;;18.20;99.90;;;;;;5003489;28;20133;-78
2022/07/12 02:02:24;;;;;;;2.28;1.95;;;18.20;99.90;;;;;;5002803;28;20483;-78
2022/07/12 02:04:51;;;;;;;6.05;2.28;;;18.20;99.90;;;;;;5005554;28;20049;-78
2022/07/12 02:07:18;;;;;;;2.70;2.50;;;18.20;99.90;;;;;;5004646;28;20123;-77
2022/07/12 02:09:45;;;;;;;3.28;2.67;;;18.20;99.90;;;;;;5002461;28;20133;-78
2022/07/12 02:12:11;;;;;;;3.45;3.15;;;18.20;99.90;;;;;;5002484;28;20085;-77
2022/07/12 02:14:38;;;;;;;4.68;2.70;;;18.20;99.90;;;;;;5002344;28;20089;-78
2022/07/12 02:17:05;;;;;;;4.70;3.15;;;18.20;99.90;;;;;;4993553;28;20046;-78
2022/07/12 02:19:31;;;;;;;4.18;3.15;;;18.10;99.90;;;;;;4993742;28;20112;-77
2022/07/12 02:21:58;;;;;;;4.55;2.80;;;18.10;99.90;;;;;;4993705;28;20142;-78
2022/07/12 02:24:25;;;;;;;4.45;2.67;;;18.00;99.90;;;;;;4995511;28;20120;-78
2022/07/12 02:26:51;;;;;;;4.68;2.90;;;18.00;99.90;;;;;;5008945;28;20077;-78
2022/07/12 02:29:18;;;;;;;2.92;2.38;;;18.00;99.90;;;;;;5010810;28;20093;-78
2022/07/12 02:31:45;;;;;;;3.92;2.95;;;17.90;99.90;;;;;;5002746;28;20081;-78
2022/07/12 02:34:12;;;;;;;4.00;2.75;;;17.80;99.90;;;;;;5005215;28;20108;-78
2022/07/12 02:36:39;;;;;;;5.13;2.72;;;17.80;99.90;;;;;;5002714;28;20094;-78
2022/07/12 02:39:05;;;;;;;4.18;2.78;;;17.80;99.90;;;;;;5001744;28;20472;-78
2022/07/12 02:41:33;;;;;;;3.25;2.35;;;17.80;99.90;;;;;;5002810;28;20136;-78
2022/07/12 02:44:00;;;;;;;5.35;2.78;;;17.80;99.90;;;;;;5017528;28;20069;-78
2022/07/12 02:46:27;;;;;;;3.83;2.35;;;17.70;99.90;;;;;;5001480;28;20686;-78
2022/07/12 02:48:53;;;;;;;4.45;2.63;;;17.70;99.90;;;;;;5004533;28;20107;-78
2022/07/12 02:51:20;;;;;;;3.80;2.63;;;17.70;99.90;;;;;;5019999;28;20046;-78
2022/07/12 02:53:47;;;;;;;4.05;2.55;;;17.70;99.90;;;;;;5005041;28;20062;-78
2022/07/12 02:56:14;;;;;;;5.00;2.50;;;17.70;99.90;;;;;;5010906;28;20487;-78
2022/07/12 02:58:40;;;;;;;2.75;2.40;;;17.60;99.90;;;;;;5001965;28;20527;-78
2022/07/12 03:01:07;;;;;;;4.65;2.25;;;17.70;99.90;;;;;;5001499;28;20467;-77
2022/07/12 03:03:35;;;;;;;2.22;2.03;;;17.60;99.90;;;;;;5009181;28;20050;-78
2022/07/12 03:06:02;;;;;;;3.47;2.42;;;17.60;99.90;;;;;;5004695;28;20050;-78
2022/07/12 03:08:28;;;;;;;2.40;2.13;;;17.50;99.90;;;;;;5006099;28;20052;-78
2022/07/12 03:10:55;;;;;;;3.78;1.90;;;17.50;99.90;;;;;;5006085;28;20496;-78
2022/07/12 03:13:22;;;;;;;5.72;2.35;;;17.50;99.90;;;;;;4995989;28;20531;-78
2022/07/12 03:15:49;;;;;;;2.30;2.00;;;17.50;99.90;;;;;;4997525;28;20086;-78
2022/07/12 03:18:17;;;;;;;4.00;3.20;;;17.60;99.90;;;;;;5001019;28;20060;-78
2022/07/12 03:20:44;;;;;;;2.33;2.13;;;17.60;99.90;;;;;;5007072;28;20077;-78
2022/07/12 03:23:11;;;;;;;4.30;2.55;;;17.60;99.90;;;;;;5005740;28;20080;-78
2022/07/12 03:25:37;;;;;;;2.90;2.25;;;17.60;99.90;;;;;;5005761;28;20504;-78
2022/07/12 03:28:04;;;;;;;8.38;2.72;;;17.60;99.90;;;;;;5012591;28;20058;-77
2022/07/12 03:30:31;;;;;;;7.50;3.05;;;17.60;99.90;;;;;;5023229;28;20069;-77
2022/07/12 03:32:58;;;;;;;6.20;2.75;;;17.60;99.90;;;;;;5006563;28;20090;-78
2022/07/12 03:35:24;;;;;;;3.70;2.25;;;17.60;99.90;;;;;;5006105;28;20129;-78
2022/07/12 03:37:52;;;;;;;2.78;2.30;;;17.60;99.90;;;;;;5006592;28;20105;-77
2022/07/12 03:40:21;;;;;;;3.08;2.40;;;17.60;99.90;;;;;;5005789;28;20088;-78
2022/07/12 03:42:48;;;;;;;2.60;2.40;;;17.50;99.90;;;;;;5005337;28;20082;-77
2022/07/12 03:45:16;;;;;;;3.63;2.40;;;17.50;99.90;;;;;;5006798;28;20530;-78
2022/07/12 03:47:43;;;;;;;2.65;2.42;;;17.50;99.90;;;;;;5015604;28;20046;-78
2022/07/12 03:50:12;;;;;;;3.78;2.25;;;17.40;99.90;;;;;;5006257;28;20054;-78
2022/07/12 03:52:41;;;;;;;2.95;2.35;;;17.40;99.90;;;;;;5006176;28;20077;-78
2022/07/12 03:55:09;;;;;;;3.53;2.42;;;17.40;99.90;;;;;;5009946;28;20058;-77
2022/07/12 03:57:36;;;;;;;3.22;2.58;;;17.40;99.90;;;;;;5006582;28;20137;-78
2022/07/12 04:00:11;;;;;;;6.32;3.20;;;17.30;99.90;;;;;;5008083;28;20050;-78
2022/07/12 04:02:40;;;;;;;5.40;2.97;;;17.30;99.90;;;;;;5015486;28;20049;-78
2022/07/12 04:05:08;;;;;;;4.00;2.95;;;17.20;99.90;;;;;;5005093;28;20051;-78
2022/07/12 04:07:36;;;;;;;4.45;3.03;;;17.30;99.90;;;;;;5011830;28;20492;-78
2022/07/12 04:10:04;;;;;;;6.00;3.28;;;17.20;99.90;;;;;;5007049;28;20084;-78
2022/07/12 04:12:31;;;;;;;4.35;2.95;;;17.20;99.90;;;;;;5005985;28;20405;-78
2022/07/12 04:14:57;;;;;;;2.47;2.25;;;17.20;99.90;;;;;;5004376;28;20086;-78
2022/07/12 04:17:24;;;;;;;3.30;2.67;;;17.10;99.90;;;;;;5006422;28;20077;-78
2022/07/12 04:19:51;;;;;;;5.80;2.90;;;17.10;99.90;;;;;;5005966;28;20077;-78
2022/07/12 04:22:18;;;;;;;3.40;2.60;;;17.00;99.90;;;;;;5011920;28;20522;-77
2022/07/12 04:24:44;;;;;;;5.07;2.50;;;17.00;99.90;;;;;;5012001;28;20046;-78
2022/07/12 04:27:11;;;;;;;3.55;2.53;;;17.00;99.90;;;;;;5006944;28;20046;-78
2022/07/12 04:29:38;;;;;;;4.30;2.45;;;17.00;99.90;;;;;;5019612;28;20090;-76
2022/07/12 04:32:05;;;;;;;4.28;2.75;;;17.00;99.90;;;;;;5010744;28;20089;-78
2022/07/12 04:34:32;;;;;;;2.35;2.13;;;16.90;99.90;;;;;;5008694;28;20065;-77
2022/07/12 04:36:59;;;;;;;2.92;2.63;;;16.90;99.90;;;;;;5010249;28;20118;-76
2022/07/12 04:39:25;;;;;;;5.80;3.47;;;17.00;99.90;;;;;;5017400;28;20046;-78
2022/07/12 04:41:52;;;;;;;5.15;3.17;;;17.00;99.90;;;;;;5016388;28;20046;-77
2022/07/12 04:44:19;;;;;;;6.10;3.25;;;17.00;99.90;;;;;;5016704;28;20045;-76
2022/07/12 04:46:45;;;;;;;3.60;2.97;;;17.00;99.90;;;;;;5023823;28;20049;-76
2022/07/12 04:49:12;;;;;;;4.85;3.40;;;17.10;99.90;;;;;;5015967;28;20074;-78
2022/07/12 04:51:39;;;;;;;4.25;2.70;;;17.10;99.90;;;;;;5016628;28;20123;-76
2022/07/12 04:54:05;;;;;;;6.88;3.13;;;17.20;99.90;;;;;;5024507;28;20073;-77
2022/07/12 04:56:32;;;;;;;4.55;2.70;;;17.20;99.90;;;;;;5010210;28;20049;-78
2022/07/12 04:58:59;;;;;;;6.03;3.65;;;17.20;99.90;;;;;;5021239;28;20133;-78
2022/07/12 05:01:29;;;;;;;4.53;2.90;;;17.30;99.90;;;;;;5002949;28;20063;-79
2022/07/12 05:03:56;;;;;;;3.05;2.50;;;17.40;99.90;;;;;;5006472;28;20060;-78
2022/07/12 05:06:22;;;;;;;2.67;2.47;;;17.60;99.90;;;;;;4995722;28;20058;-77
2022/07/12 05:08:50;;;;;;;4.38;2.45;;;17.70;99.90;;;;;;5002061;28;20050;-78
2022/07/12 05:11:16;;;;;;;4.25;2.65;;;17.80;99.90;;;;;;4995889;28;20093;-78
2022/07/12 05:13:43;;;;;;;4.10;2.60;;;18.00;99.90;;;;;;4997957;28;20069;-79
2022/07/12 05:16:10;;;;;;;4.07;2.53;;;18.10;99.90;;;;;;5004515;28;20046;-78
2022/07/12 05:18:36;;;;;;;3.83;2.70;;;18.30;99.90;;;;;;5005479;28;20133;-78
2022/07/12 05:21:03;;;;;;;5.35;2.78;;;18.40;99.90;;;;;;5006285;28;20053;-78
2022/07/12 05:23:30;;;;;;;7.00;3.10;;;18.50;99.90;;;;;;5003828;28;20050;-78
2022/07/12 05:25:57;;;;;;;6.18;2.90;;;18.70;99.90;;;;;;5006115;28;20085;-77
2022/07/12 05:28:24;;;;;;;4.97;2.38;;;18.70;99.90;;;;;;5006333;28;20128;-78
2022/07/12 05:30:50;;;;;;;4.88;2.78;;;18.80;99.90;;;;;;5004137;28;20077;-77
2022/07/12 05:33:17;;;;;;;6.10;3.55;;;18.90;99.90;;;;;;5010478;28;20614;-77
2022/07/12 05:35:44;;;;;;;10.98;4.85;;;19.00;99.90;;;;;;5005353;28;20073;-78
2022/07/12 05:38:11;;;;;;;4.95;4.13;;;19.10;99.90;;;;;;5003281;28;20073;-77
2022/07/12 05:40:37;;;;;;;4.85;4.07;;;19.10;99.90;;;;;;5009497;28;20145;-78
2022/07/12 05:43:04;;;;;;;9.73;5.22;;;19.10;99.90;;;;;;5004756;28;20088;-78
2022/07/12 05:45:31;;;;;;;5.60;4.82;;;19.20;99.90;;;;;;5003627;28;20074;-78
2022/07/12 05:47:58;;;;;;;8.00;5.05;;;19.20;99.90;;;;;;5002108;28;20547;-78
2022/07/12 05:50:25;;;;;;;9.25;6.05;;;19.20;99.90;;;;;;5002294;28;20137;-78
2022/07/12 05:55:36;;;;;;;7.32;4.30;;;19.10;99.90;;;;;;5003943;28;20082;-77
2022/07/12 05:58:03;;;;;;;6.88;4.80;;;19.10;99.90;;;;;;5009433;28;20074;-77
2022/07/12 06:00:32;;;;;;;9.98;5.18;;;19.00;99.90;;;;;;5003353;28;20558;-77
2022/07/12 06:02:59;;;;;;;8.52;5.53;;;19.00;99.90;;;;;;5007513;28;20085;-77
2022/07/12 06:05:25;;;;;;;6.38;5.30;;;19.00;99.90;;;;;;5010111;28;20346;-77
2022/07/12 06:07:52;;;;;;;7.25;5.63;;;19.00;99.90;;;;;;5004346;28;20060;-78
2022/07/12 06:10:19;;;;;;;8.85;6.72;;;19.00;99.90;;;;;;5001935;28;20133;-77
2022/07/12 06:12:46;;;;;;;9.05;6.63;;;19.00;99.90;;;;;;5003377;28;20077;-77
2022/07/12 06:15:13;;;;;;;8.43;4.65;;;19.00;99.90;;;;;;5004387;28;20535;-78
2022/07/12 06:17:40;;;;;;;6.13;4.80;;;19.10;99.90;;;;;;5010144;28;20504;-77
2022/07/12 06:20:07;;;;;;;8.70;4.30;;;19.00;99.90;;;;;;5005232;28;20129;-77
2022/07/12 06:22:33;;;;;;;4.82;3.40;;;19.00;99.90;;;;;;5001879;28;20077;-77
2022/07/12 06:25:00;;;;;;;5.88;3.70;;;19.00;99.90;;;;;;5004785;28;20081;-77
2022/07/12 06:27:48;;;;;;;8.15;3.45;;;19.10;99.90;;;;;;5003489;28;20046;-77
2022/07/12 06:30:19;;;;;;;6.00;3.33;;;19.10;99.90;;;;;;5001994;28;20057;-77
2022/07/12 06:32:48;;;;;;;5.88;3.80;;;19.10;99.90;;;;;;5001917;28;20485;-77
2022/07/12 06:35:16;;;;;;;;;;;19.10;99.90;;;;;;5009169;28;20042;-78
2022/07/12 06:37:43;;;;;;;5.72;3.30;;;19.10;99.90;;;;;;5007720;28;20378;-78
2022/07/12 06:40:10;;;;;;;6.85;3.13;;;19.20;99.90;;;;;;5007960;28;20110;-78
2022/07/12 06:42:38;;;;;;;5.78;3.35;;;19.20;99.90;;;;;;5003434;28;20586;-77
2022/07/12 06:45:05;;;;;;;3.35;2.63;;;19.20;99.90;;;;;;5007361;28;20042;-77
2022/07/12 06:47:32;;;;;;;5.80;4.53;;;19.20;99.90;;;;;;5012695;28;20050;-77
2022/07/12 06:49:58;;;;;;;7.38;4.40;;;19.10;99.90;;;;;;5006596;28;20118;-77
2022/07/12 06:52:25;;;;;;;7.63;4.45;;;19.10;99.90;;;;;;5007568;28;20046;-77
2022/07/12 06:54:57;;;;;;;4.88;4.13;;;19.10;99.90;;;;;;5006723;28;20054;-77
2022/07/12 06:57:26;;;;;;;11.63;4.32;;;19.20;99.90;;;;;;5008353;28;20050;-76
2022/07/12 06:59:53;;;;;;;7.32;4.10;;;19.20;99.90;;;;;;5006481;28;20104;-76
2022/07/12 07:02:19;;;;;;;6.30;4.28;;;19.20;99.90;;;;;;5006050;28;20054;-76
2022/07/12 07:04:47;;;;;;;5.28;3.67;;;19.20;99.90;;;;;;5011054;28;20053;-76
2022/07/12 07:07:13;;;;;;;8.00;4.20;;;19.20;99.90;;;;;;5005303;28;20086;-77
2022/07/12 07:09:41;;;;;;;8.55;4.60;;;19.20;99.90;;;;;;5010146;28;20125;-76
2022/07/12 07:12:08;;;;;;;8.65;4.82;;;19.30;99.90;;;;;;5011899;28;20073;-76
2022/07/12 07:14:35;;;;;;;8.60;4.43;;;19.30;99.90;;;;;;5014569;28;20128;-76
2022/07/12 07:17:01;;;;;;;6.90;4.53;;;19.30;99.90;;;;;;5009257;28;20086;-77
2022/07/12 07:19:28;;;;;;;7.10;5.10;;;19.40;99.90;;;;;;5007819;28;20519;-77
2022/07/12 07:21:55;;;;;;;6.10;4.65;;;19.40;99.90;;;;;;5007752;28;20125;-76
2022/07/12 07:24:22;;;;;;;6.75;5.05;;;19.50;99.90;;;;;;5013923;28;20104;-77
2022/07/12 07:26:49;;;;;;;9.98;4.55;;;19.40;99.90;;;;;;5011087;28;20081;-77
2022/07/12 07:32:08;;;;;;;6.78;4.15;;;19.60;99.90;;;;;;5004833;28;20171;-77
2022/07/12 07:34:35;;;;;;;7.65;4.63;;;19.60;99.90;;;;;;5007640;28;20109;-77
2022/07/12 07:37:02;;;;;;;6.90;4.10;;;19.60;99.90;;;;;;5012499;28;20092;-77
2022/07/12 07:39:28;;;;;;;5.45;4.10;;;19.70;99.90;;;;;;5005904;28;20141;-77
2022/07/12 07:41:55;;;;;;;5.72;3.70;;;19.70;99.90;;;;;;5007047;28;20159;-77
2022/07/12 07:44:22;;;;;;;4.90;3.90;;;19.80;99.90;;;;;;5004947;28;20125;-77
2022/07/12 07:46:52;;;;;;;6.22;3.80;;;19.80;99.90;;;;;;5004995;28;20046;-76
2022/07/12 07:49:18;;;;;;;4.45;3.38;;;19.80;99.90;;;;;;4995920;28;20132;-75
2022/07/12 07:51:45;;;;;;;7.78;2.72;;;19.90;99.90;;;;;;5003938;28;20051;-77
2022/07/12 07:54:12;;;;;;;6.13;3.50;;;19.90;99.90;;;;;;5006591;28;20124;-76
2022/07/12 07:56:38;;;;;;;9.63;4.07;;;20.00;99.90;;;;;;5006420;28;20050;-77
2022/07/12 07:59:07;;;;;;;6.50;3.67;;;20.00;99.90;;;;;;5010752;28;20129;-77
2022/07/12 08:01:45;;;;;;;4.80;3.75;;;20.00;99.90;;;;;;4996408;28;20054;-80
2022/07/12 08:04:13;;;;;;;5.55;3.50;;;20.10;99.90;;;;;;4999792;28;20282;-79
2022/07/12 08:06:40;;;;;;;6.80;3.80;;;20.10;99.90;;;;;;4999273;28;20085;-80
2022/07/12 08:09:08;;;;;;;5.40;3.88;;;20.10;99.90;;;;;;5010721;28;20089;-80
2022/07/12 08:11:39;;;;;;;5.82;3.65;;;20.10;99.90;;;;;;5007703;28;20539;-79
2022/07/12 08:14:07;;;;;;;4.68;3.33;;;20.10;99.90;;;;;;5007253;28;20086;-79
2022/07/12 08:16:34;;;;;;;5.18;3.17;;;20.20;99.90;;;;;;5007825;28;20081;-80
2022/07/12 08:19:02;;;;;;;4.25;2.88;;;20.30;99.90;;;;;;5007155;28;20456;-79
2022/07/12 08:21:29;;;;;;;5.63;2.35;;;20.30;99.90;;;;;;5009487;28;20133;-79
2022/07/12 08:23:57;;;;;;;3.08;2.35;;;20.30;99.90;;;;;;5006480;28;20475;-79
2022/07/12 08:26:24;;;;;;;4.68;2.95;;;20.40;99.90;;;;;;5009355;28;20141;-79
2022/07/12 08:28:51;;;;;;;2.97;2.67;;;20.40;99.90;;;;;;5014479;28;20125;-80
2022/07/12 08:31:18;;;;;;;4.10;3.03;;;20.50;99.90;;;;;;5007330;28;20436;-80
2022/07/12 08:33:45;;;;;;;6.75;2.83;;;20.50;99.90;;;;;;5008234;28;20093;-79
2022/07/12 08:36:11;;;;;;;5.65;2.92;;;20.60;99.90;;;;;;5007742;28;20050;-79
2022/07/12 08:38:40;;;;;;;12.00;2.53;;;20.70;99.90;;;;;;5006513;28;20089;-80
2022/07/12 08:41:09;;;;;;;5.55;2.58;;;20.70;99.90;;;;;;5010914;28;20050;-77
2022/07/12 08:43:36;;;;;;;3.63;2.80;;;20.80;99.90;;;;;;5007511;28;20128;-77
2022/07/12 08:46:07;;;;;;;4.55;2.83;;;20.80;99.90;;;;;;5004380;28;20046;-77
2022/07/12 08:48:35;;;;;;;7.28;3.35;;;20.90;99.90;;;;;;5009243;28;20125;-77
2022/07/12 08:51:07;;;;;;;4.68;3.13;;;20.80;99.90;;;;;;5006198;28;20129;-78
2022/07/12 08:53:34;;;;;;;3.85;2.17;;;20.90;99.90;;;;;;5004345;28;20074;-78
2022/07/12 08:56:02;;;;;;;4.72;2.60;;;20.90;99.90;;;;;;5004806;28;20088;-78
2022/07/12 08:58:29;;;;;;;5.55;2.63;;;21.00;99.90;;;;;;5004249;28;20089;-79
2022/07/12 09:00:56;;;;;;;4.25;2.15;;;21.00;99.90;;;;;;5006390;28;20085;-78
2022/07/12 09:03:23;;;;;;;3.67;2.28;;;21.10;99.90;;;;;;5006509;28;20516;-77
2022/07/12 09:05:53;;;;;;;4.90;2.15;;;21.10;99.90;;;;;;5011418;28;20042;-81
2022/07/12 09:08:29;;;;;;;3.45;2.13;;;21.20;99.90;;;;;;5004956;28;20487;-79
2022/07/12 09:11:01;;;;;;;4.80;2.45;;;21.30;99.90;;;;;;5013783;28;20111;-80
2022/07/12 09:13:53;;;;;;;7.82;3.22;;;21.30;99.90;;;;;;5007140;28;20373;-77
2022/07/12 09:16:25;;;;;;;2.85;1.83;;;21.40;99.90;;;;;;5001850;28;20049;-77
2022/07/12 09:19:17;;;;;;;2.92;1.98;;;21.40;99.90;;;;;;5003563;28;20145;-78
2022/07/12 09:21:49;;;;;;;3.42;2.10;;;21.50;99.90;;;;;;5004442;28;20104;-78
2022/07/12 09:24:16;;;;;;;3.35;2.00;;;21.60;99.90;;;;;;5002934;28;20089;-76
2022/07/12 09:26:43;;;;;;;2.38;2.17;;;21.60;99.90;;;;;;5002135;28;20081;-78
2022/07/12 09:29:11;;;;;;;6.15;2.30;;;21.70;99.90;;;;;;4993454;28;20043;-76
2022/07/12 09:37:21;;;;;;;9.00;2.63;;;21.90;99.90;;;;;;4997248;28;20089;-79
2022/07/12 09:39:48;;;;;;;3.35;2.33;;;22.00;99.90;;;;;;5002770;28;20081;-79
2022/07/12 09:42:15;;;;;;;6.18;2.22;;;22.00;99.90;;;;;;5004135;28;20082;-77
2022/07/12 09:44:42;;;;;;;3.63;2.08;;;22.00;99.90;;;;;;4996702;28;20535;-81
2022/07/12 09:47:15;;;;;;;4.40;2.33;;;22.10;99.90;;;;;;5003698;28;20099;-79
2022/07/12 09:49:43;;;;;;;8.40;3.00;;;22.10;99.90;;;;;;5019475;28;20085;-79
2022/07/12 09:52:19;;;;;;;2.90;1.75;;;22.20;99.90;;;;;;5004876;28;20428;-79
2022/07/12 09:54:49;;;;;;;4.60;2.17;;;22.20;99.90;;;;;;5006892;28;20076;-79
2022/07/12 09:57:31;;;;;;;4.40;1.95;;;22.20;99.90;;;;;;5007553;28;20077;-77
2022/07/12 09:59:59;;;;;;;3.92;2.05;;;22.30;99.90;;;;;;5006334;28;20073;-77
2022/07/12 10:02:26;;;;;;;7.32;2.10;;;22.30;99.90;;;;;;5013945;28;20082;-78
2022/07/12 10:04:54;;;;;;;4.72;1.90;;;22.40;99.90;;;;;;5005738;28;20046;-79
2022/07/12 10:07:22;;;;;;;6.47;2.33;;;22.50;99.90;;;;;;5010038;28;20069;-79
2022/07/12 10:09:52;;;;;;;3.95;2.35;;;22.50;99.90;;;;;;5006621;28;20085;-79
2022/07/12 10:12:21;;;;;;;11.63;2.35;;;22.50;99.90;;;;;;5006127;28;20088;-80
2022/07/12 10:14:55;;;;;;;7.18;1.88;;;22.60;99.90;;;;;;5008021;28;20423;-77
2022/07/12 10:17:22;;;;;;;3.10;1.88;;;22.70;99.90;;;;;;5011716;28;20074;-78
2022/07/12 10:19:49;;;;;;;3.63;1.92;;;22.80;99.90;;;;;;5013430;28;20046;-79
2022/07/12 10:22:21;;;;;;;5.03;2.22;;;22.80;99.90;;;;;;4997984;28;20508;-79
2022/07/12 10:24:51;;;;;;;8.15;2.00;;;22.80;99.90;;;;;;4998128;28;20078;-77
2022/07/12 10:27:28;;;;;;;1.70;1.55;;;22.90;99.90;;;;;;5002854;28;20085;-77
2022/07/12 10:30:13;;;;;;;3.03;2.67;;;23.10;99.90;;;;;;4997185;28;20042;-78
2022/07/12 10:32:44;;;;;;;2.95;1.90;;;23.10;99.90;;;;;;5006536;28;20042;-78
2022/07/12 10:35:17;;;;;;;4.15;1.88;;;23.10;99.90;;;;;;5006744;28;20074;-79
2022/07/12 10:38:17;;;;;;;3.50;1.90;;;23.10;99.90;;;;;;5006847;28;20082;-78
2022/07/12 10:40:46;;;;;;;2.20;2.00;;;23.10;99.90;;;;;;5006323;28;20050;-77
2022/07/12 10:43:16;;;;;;;1.88;1.65;;;23.20;99.90;;;;;;5006608;28;20046;-79
2022/07/12 10:45:44;;;;;;;3.03;1.97;;;23.20;99.90;;;;;;5011369;28;20138;-77
2022/07/12 10:48:14;;;;;;;3.50;1.73;;;23.20;99.90;;;;;;5005760;28;20077;-80
2022/07/12 10:50:57;;;;;;;3.10;1.48;;;23.30;99.90;;;;;;5012019;28;20121;-79
2022/07/12 10:53:34;;;;;;;3.58;1.65;;;23.40;99.90;;;;;;5004292;28;20047;-78
2022/07/12 10:56:07;;;;;;;5.03;2.50;;;23.50;99.90;;;;;;5021800;28;20097;-79
2022/07/12 10:58:40;;;;;;;6.10;1.70;;;23.60;99.90;;;;;;5004673;28;20093;-81
2022/07/12 11:01:10;;;;;;;3.05;1.58;;;23.60;99.90;;;;;;5006329;28;20077;-77
2022/07/12 11:03:53;;;;;;;;;;;23.80;99.90;;;;;;5006771;28;20054;-78
2022/07/12 11:06:25;;;;;;;3.10;1.70;;;23.80;99.90;;;;;;5009605;28;19921;-79
2022/07/12 11:09:03;;;;;;;1.40;1.30;;;23.70;99.90;;;;;;5011094;28;20054;-77
2022/07/12 11:11:39;;;;;;;4.63;1.70;;;23.80;99.90;;;;;;5009210;28;20093;-78
2022/07/12 11:14:06;;;;;;;2.08;1.30;;;23.80;99.90;;;;;;5007545;28;20929;-79
2022/07/12 11:16:32;;;;;;;3.28;1.45;;;23.90;99.90;;;;;;5009086;28;20119;-80
2022/07/12 11:19:00;;;;;;;1.70;1.38;;;24.00;99.90;;;;;;5008043;28;20073;-80
2022/07/12 11:21:27;;;;;;;1.75;1.25;;;24.00;99.90;;;;;;5009321;28;20053;-79
2022/07/12 11:23:54;;;;;;;1.98;1.45;;;24.00;99.90;;;;;;5006037;28;20121;-79
2022/07/12 11:26:21;;;;;;;2.10;1.52;;;24.10;99.90;;;;;;5007339;28;20451;-79
2022/07/12 11:28:48;;;;;;;1.63;1.30;;;24.20;99.90;;;;;;5009437;28;20081;-80
2022/07/12 11:31:17;;;;;;;4.50;1.52;;;24.30;99.90;;;;;;5002885;28;20043;-80
2022/07/12 11:33:48;;;;;;;3.60;1.60;;;24.20;99.90;;;;;;5018664;28;20049;-78
2022/07/12 11:36:15;;;;;;;2.80;1.40;;;24.20;99.90;;;;;;5014526;28;20054;-80
2022/07/12 11:38:44;;;;;;;3.83;1.63;;;24.30;99.90;;;;;;5010329;28;20060;-80
2022/07/12 11:41:13;;;;;;;6.05;1.40;;;24.20;99.90;;;;;;5023886;28;20054;-80
2022/07/12 11:43:41;;;;;;;2.83;1.35;;;24.40;99.90;;;;;;5017800;28;20049;-80
2022/07/12 11:46:08;;;;;;;4.50;1.52;;;24.40;99.90;;;;;;5013051;28;20109;-81
2022/07/12 11:48:36;;;;;;;5.45;1.35;;;24.50;99.90;;;;;;5016104;28;20052;-82
2022/07/12 11:51:13;;;;;;;4.78;1.65;;;24.50;99.90;;;;;;5011520;28;20049;-81
2022/07/12 11:53:40;;;;;;;4.65;1.90;;;24.50;99.90;;;;;;5015577;28;20423;-81
2022/07/12 11:56:09;;;;;;;5.65;1.73;;;24.50;99.90;;;;;;5014990;28;20046;-81
2022/07/12 11:58:38;;;;;;;4.50;1.50;;;24.50;99.90;;;;;;5014778;28;20495;-80
2022/07/12 12:01:10;;;;;;;1.73;1.58;;;24.50;99.90;;;;;;5015976;28;20420;-80
2022/07/12 12:03:45;;;;;;;4.30;1.45;;;24.60;99.90;;;;;;5012833;28;20109;-82
2022/07/12 12:06:12;;;;;;;2.13;1.40;;;24.70;99.90;;;;;;5011391;28;20046;-80
2022/07/12 12:08:39;;;;;;;2.78;1.50;;;24.70;99.90;;;;;;5012926;28;20341;-81
2022/07/12 12:11:06;;;;;;;4.25;1.50;;;24.80;99.90;;;;;;5010041;28;20046;-81
2022/07/12 12:13:33;;;;;;;2.22;1.40;;;24.80;99.90;;;;;;5011704;28;20100;-81
2022/07/12 12:16:01;;;;;;;7.28;1.90;;;24.90;99.90;;;;;;5012373;28;20485;-81
2022/07/12 12:18:34;;;;;;;1.52;1.40;;;24.90;99.90;;;;;;5009922;28;20081;-79
2022/07/12 12:21:06;;;;;;;2.90;1.35;;;25.00;99.90;;;;;;5010022;28;20062;-80
2022/07/12 12:23:36;;;;;;;2.08;1.30;;;25.00;99.90;;;;;;5016963;28;20049;-80
2022/07/12 12:26:21;;;;;;;4.40;1.73;;;25.00;99.90;;;;;;5012708;28;20054;-81
2022/07/12 12:28:49;;;;;;;3.92;1.58;;;25.10;99.90;;;;;;5008795;28;20046;-81
2022/07/12 12:31:20;;;;;;;4.30;1.90;;;25.10;99.90;;;;;;5010394;28;20042;-80
2022/07/12 12:34:01;;;;;;;4.47;1.58;;;25.10;99.90;;;;;;5008688;28;20046;-79
2022/07/12 12:36:29;;;;;;;;;;;25.20;99.90;;;;;;5009624;28;20121;-81
2022/07/12 12:38:58;;;;;;;5.65;1.90;;;25.10;99.90;;;;;;5008942;28;19922;-81
2022/07/12 12:41:26;;;;;;;3.72;1.70;;;25.30;99.90;;;;;;5009761;28;20101;-79
2022/07/12 12:44:04;;;;;;;3.47;1.98;;;25.30;99.90;;;;;;5001270;28;20050;-82
2022/07/12 12:46:53;;;;;;;3.80;1.67;;;25.20;99.90;;;;;;5007983;28;20050;-81
2022/07/12 12:49:19;;;;;;;2.00;1.67;;;25.30;99.90;;;;;;5000536;28;20130;-81
2022/07/12 12:51:58;;;;;;;2.00;1.60;;;25.30;99.90;;;;;;5004003;28;20460;-82
2022/07/12 12:54:38;;;;;;;1.67;1.58;;;25.30;99.90;;;;;;5009884;28;20054;-82
2022/07/12 12:57:06;;;;;;;1.80;1.67;;;25.50;99.90;;;;;;5008255;28;20128;-79
2022/07/12 12:59:33;;;;;;;3.58;1.50;;;25.50;99.90;;;;;;5010160;28;20075;-82
2022/07/12 13:02:01;;;;;;;3.03;1.52;;;25.60;99.90;;;;;;5013139;28;20058;-81
2022/07/12 13:04:36;;;;;;;1.77;1.40;;;25.60;99.90;;;;;;5012598;28;20054;-82
2022/07/12 13:07:03;;;;;;;2.53;1.55;;;25.60;99.90;;;;;;5011063;28;20124;-82